Time;durP1;ratioP1;P1;durP2;ratioP2;P2;SDS_P1;SDS_P2;PMS_P1;PMS_P2;Temp;Humidity;BMP_temperature;BMP_pressure;BME280_temperature;BME280_humidity;BME280_pressure;Samples;Min_cycle;Max_cycle;Signal;HPM_P1;HPM_P2
2023/09/30 00:00:08;;;;;;;8.05;5.70;;;20.40;49.60;;;;;;20740;6831;117114;-72
2023/09/30 00:02:32;;;;;;;8.13;6.90;;;20.20;50.00;;;;;;20525;6832;308347;-72
2023/09/30 00:04:58;;;;;;;8.90;6.80;;;20.30;50.20;;;;;;20513;6832;308726;-71
2023/09/30 00:07:23;;;;;;;9.07;6.93;;;20.70;49.80;;;;;;20535;6833;311657;-72
2023/09/30 00:09:50;;;;;;;8.07;5.70;;;20.90;49.50;;;;;;20742;6833;118396;-72
2023/09/30 00:12:14;;;;;;;7.53;6.47;;;20.70;49.30;;;;;;20526;6833;309492;-71
2023/09/30 00:14:40;;;;;;;8.25;6.10;;;20.70;49.50;;;;;;20486;6833;307097;-72
2023/09/30 00:17:06;;;;;;;7.07;5.15;;;20.60;49.40;;;;;;20725;6833;117330;-72
2023/09/30 00:19:33;;;;;;;7.67;4.93;;;20.60;49.30;;;;;;20732;6833;117684;-72
2023/09/30 00:21:58;;;;;;;6.77;6.07;;;20.30;49.80;;;;;;20522;6833;319689;-72
2023/09/30 00:24:23;;;;;;;6.50;4.90;;;20.30;50.10;;;;;;20737;6833;118163;-72
2023/09/30 00:26:50;;;;;;;6.75;5.20;;;20.20;50.00;;;;;;20724;6833;149963;-71
2023/09/30 00:29:15;;;;;;;8.02;4.80;;;19.80;51.40;;;;;;20738;6833;117984;-71
2023/09/30 00:31:41;;;;;;;6.90;4.90;;;19.70;50.60;;;;;;20741;6833;117086;-71
2023/09/30 00:34:06;;;;;;;6.70;5.17;;;19.60;50.90;;;;;;20742;6833;124526;-71
2023/09/30 00:36:32;;;;;;;7.15;5.60;;;19.40;51.00;;;;;;20527;6833;309017;-71
2023/09/30 00:38:57;;;;;;;8.57;6.87;;;19.70;51.30;;;;;;20723;6833;120364;-71
2023/09/30 00:41:23;;;;;;;50.60;41.27;;;19.80;51.10;;;;;;20537;6833;278479;-72
2023/09/30 00:43:49;;;;;;;15.93;11.70;;;20.00;51.10;;;;;;20743;6833;117549;-71
2023/09/30 00:46:27;;;;;;;8.07;5.33;;;20.00;51.10;;;;;;20744;6833;121555;-72
2023/09/30 00:48:53;;;;;;;6.40;5.13;;;19.90;51.20;;;;;;20722;6833;119077;-72
2023/09/30 00:51:19;;;;;;;6.47;5.62;;;19.70;51.30;;;;;;20526;6833;341195;-71
2023/09/30 00:53:44;;;;;;;6.18;4.45;;;19.90;51.10;;;;;;20736;6833;120739;-71
2023/09/30 00:56:10;;;;;;;7.47;5.63;;;20.00;50.90;;;;;;20530;6833;282532;-71
2023/09/30 00:58:35;;;;;;;5.93;4.78;;;20.10;50.80;;;;;;20719;6833;118917;-71
2023/09/30 01:01:01;;;;;;;7.87;5.00;;;20.10;50.70;;;;;;20737;6833;117432;-71
2023/09/30 01:03:26;;;;;;;7.05;5.85;;;19.90;50.90;;;;;;20531;6833;308444;-71
2023/09/30 01:05:52;;;;;;;6.55;4.93;;;20.00;50.80;;;;;;20751;6833;117714;-71
2023/09/30 01:08:17;;;;;;;5.55;4.03;;;20.00;50.70;;;;;;20741;6833;118850;-71
2023/09/30 01:10:43;;;;;;;6.93;5.43;;;19.80;50.90;;;;;;20509;6831;307951;-71
2023/09/30 01:13:09;;;;;;;7.40;5.53;;;19.90;50.90;;;;;;20748;6832;122559;-71
2023/09/30 01:15:36;;;;;;;6.37;5.65;;;19.90;50.90;;;;;;20528;6832;333752;-71
2023/09/30 01:18:01;;;;;;;7.07;5.53;;;20.10;50.80;;;;;;20527;6833;307147;-71
2023/09/30 01:20:27;;;;;;;6.35;5.60;;;20.40;50.20;;;;;;20531;6833;278404;-71
2023/09/30 01:22:52;;;;;;;6.33;5.50;;;20.60;49.70;;;;;;20515;6833;307678;-71
2023/09/30 01:25:17;;;;;;;7.63;5.07;;;20.80;49.40;;;;;;20751;6833;119965;-71
2023/09/30 01:27:43;;;;;;;7.50;4.83;;;20.50;49.50;;;;;;20760;6833;117142;-71
2023/09/30 01:30:10;;;;;;;6.30;5.03;;;19.80;50.40;;;;;;20743;6833;118678;-71
2023/09/30 01:32:35;;;;;;;6.55;5.43;;;19.80;50.40;;;;;;20504;6833;307655;-71
2023/09/30 01:35:00;;;;;;;6.90;6.00;;;19.90;50.80;;;;;;20514;6833;333381;-71
2023/09/30 01:37:28;;;;;;;7.15;5.15;;;19.90;50.50;;;;;;20744;6833;117672;-71
2023/09/30 01:39:54;;;;;;;6.62;5.85;;;19.90;50.50;;;;;;20529;6833;280895;-71
2023/09/30 01:42:18;;;;;;;7.70;5.87;;;19.90;50.60;;;;;;20542;6833;282644;-71
2023/09/30 01:44:43;;;;;;;6.77;4.67;;;20.10;51.00;;;;;;20734;6833;122529;-71
2023/09/30 01:47:09;;;;;;;7.10;4.70;;;19.90;50.40;;;;;;20756;6833;117362;-71
2023/09/30 01:49:35;;;;;;;7.30;4.90;;;19.50;50.90;;;;;;20742;6833;117224;-71
2023/09/30 01:52:00;;;;;;;6.93;5.70;;;19.20;51.30;;;;;;20480;6833;312256;-71
2023/09/30 01:54:26;;;;;;;7.47;6.07;;;19.30;51.70;;;;;;20495;6833;337108;-71
2023/09/30 01:56:51;;;;;;;7.07;5.10;;;19.60;51.40;;;;;;20715;6833;122302;-71
2023/09/30 01:59:17;;;;;;;6.37;5.70;;;19.50;51.30;;;;;;20532;6833;279881;-71
2023/09/30 02:01:42;;;;;;;6.57;5.37;;;19.60;51.50;;;;;;20530;6833;337950;-71
2023/09/30 02:04:08;;;;;;;6.28;4.68;;;19.80;51.20;;;;;;20741;6833;120332;-71
2023/09/30 02:06:35;;;;;;;7.28;5.12;;;19.70;51.40;;;;;;20740;6833;117121;-74
2023/09/30 02:08:59;;;;;;;6.87;5.22;;;19.40;51.90;;;;;;20367;6833;309609;-71
2023/09/30 02:11:28;;;;;;;6.83;5.53;;;19.60;52.00;;;;;;20538;6833;278002;-71
2023/09/30 02:13:52;;;;;;;7.40;5.80;;;20.00;51.80;;;;;;20724;6833;117142;-71
2023/09/30 02:16:18;;;;;;;7.27;6.50;;;20.00;51.80;;;;;;20533;6833;338672;-72
2023/09/30 02:18:44;;;;;;;7.28;5.70;;;20.10;51.40;;;;;;20731;6833;120225;-71
2023/09/30 02:21:09;;;;;;;9.25;7.07;;;20.00;51.40;;;;;;20523;6833;310522;-71
2023/09/30 02:23:35;;;;;;;8.20;5.87;;;19.90;51.40;;;;;;20752;6831;117117;-71
2023/09/30 02:26:01;;;;;;;9.20;5.77;;;19.90;51.30;;;;;;20737;6832;117097;-71
2023/09/30 02:28:27;;;;;;;8.48;6.03;;;19.40;51.80;;;;;;20746;6832;120231;-71
2023/09/30 02:30:53;;;;;;;8.02;6.95;;;19.40;51.80;;;;;;20516;6833;310262;-71
2023/09/30 02:33:18;;;;;;;6.45;5.40;;;19.50;51.80;;;;;;20741;6833;120926;-71
2023/09/30 02:35:47;;;;;;;7.70;5.82;;;19.40;51.70;;;;;;20748;6833;119769;-71
2023/09/30 02:38:17;;;;;;;7.27;6.33;;;19.30;52.40;;;;;;20531;6833;310180;-71
2023/09/30 02:40:40;;;;;;;8.53;5.10;;;19.30;52.30;;;;;;20713;6833;121741;-71
2023/09/30 02:43:04;;;;;;;7.10;5.97;;;19.20;52.10;;;;;;20531;6833;334445;-71
2023/09/30 02:45:30;;;;;;;7.37;5.80;;;19.30;52.10;;;;;;20528;6833;307689;-71
2023/09/30 02:47:56;;;;;;;5.93;4.62;;;19.60;51.70;;;;;;20745;6833;120762;-71
2023/09/30 02:50:21;;;;;;;6.93;4.90;;;19.50;51.70;;;;;;20749;6833;123434;-71
2023/09/30 02:52:47;;;;;;;6.93;5.32;;;19.20;52.00;;;;;;20510;6833;307671;-72
2023/09/30 02:55:12;;;;;;;6.07;4.30;;;19.30;52.00;;;;;;20755;6833;117252;-71
2023/09/30 02:57:38;;;;;;;5.47;4.25;;;19.20;51.90;;;;;;20747;6833;120837;-71
2023/09/30 03:00:23;;;;;;;6.28;4.53;;;18.80;52.40;;;;;;20750;6833;117552;-71
2023/09/30 03:02:41;;;;;;;5.00;4.40;;;18.80;52.40;;;;;;20701;6833;118470;-72
2023/09/30 03:05:07;;;;;;;6.10;5.07;;;18.70;52.70;;;;;;20523;6833;341241;-73
2023/09/30 03:07:33;;;;;;;7.97;4.47;;;18.80;52.40;;;;;;20737;6833;117655;-72
2023/09/30 03:09:59;;;;;;;6.03;4.43;;;18.90;52.40;;;;;;20737;6833;121360;-72
2023/09/30 03:12:25;;;;;;;6.78;5.57;;;18.70;52.50;;;;;;20525;6833;336755;-72
2023/09/30 03:14:51;;;;;;;6.87;4.47;;;18.90;52.20;;;;;;20717;6833;118405;-72
2023/09/30 03:17:17;;;;;;;5.13;4.37;;;18.90;52.30;;;;;;20742;6833;117265;-72
2023/09/30 03:19:42;;;;;;;5.87;4.53;;;18.80;52.50;;;;;;20744;6833;117540;-72
2023/09/30 03:22:11;;;;;;;5.35;4.43;;;18.60;52.70;;;;;;20739;6833;117605;-72
2023/09/30 03:24:35;;;;;;;4.90;4.10;;;18.50;53.00;;;;;;20735;6833;118366;-72
2023/09/30 03:26:59;;;;;;;6.03;4.45;;;18.40;53.00;;;;;;20716;6833;119945;-72
2023/09/30 03:29:26;;;;;;;6.15;5.10;;;18.40;53.20;;;;;;20538;6833;278529;-72
2023/09/30 03:31:50;;;;;;;5.28;4.55;;;18.70;53.30;;;;;;20744;6833;117640;-72
2023/09/30 03:34:16;;;;;;;5.73;5.00;;;18.80;53.00;;;;;;20532;6831;278877;-72
2023/09/30 03:36:42;;;;;;;6.90;5.20;;;19.40;52.10;;;;;;20515;6832;331580;-73
2023/09/30 03:39:08;;;;;;;5.90;5.30;;;19.40;52.00;;;;;;20530;6832;316316;-72
2023/09/30 03:41:33;;;;;;;5.43;4.37;;;19.70;51.50;;;;;;20748;6833;117173;-72
2023/09/30 03:43:59;;;;;;;5.03;4.25;;;19.20;51.80;;;;;;20748;6833;117180;-72
2023/09/30 03:46:26;;;;;;;5.80;5.20;;;19.20;51.90;;;;;;20535;6833;307730;-72
2023/09/30 03:48:51;;;;;;;5.47;4.93;;;19.20;51.90;;;;;;20510;6833;308506;-72
2023/09/30 03:51:17;;;;;;;6.13;4.30;;;19.40;51.60;;;;;;20732;6833;118173;-72
2023/09/30 03:53:42;;;;;;;5.87;5.28;;;19.30;51.70;;;;;;20533;6833;283356;-72
2023/09/30 03:56:08;;;;;;;5.30;4.67;;;19.30;51.60;;;;;;20725;6833;117178;-72
2023/09/30 03:58:33;;;;;;;5.87;4.82;;;19.10;51.70;;;;;;20511;6833;308559;-72
2023/09/30 04:01:00;;;;;;;5.10;4.50;;;19.10;51.80;;;;;;20706;6833;117404;-72
2023/09/30 04:03:25;;;;;;;4.57;4.03;;;18.90;51.70;;;;;;20718;6833;118331;-72
2023/09/30 04:05:50;;;;;;;6.82;5.03;;;18.60;52.10;;;;;;20515;6833;278120;-72
2023/09/30 04:08:17;;;;;;;5.43;4.85;;;18.70;52.20;;;;;;20509;6833;313531;-72
2023/09/30 04:10:41;;;;;;;6.37;4.67;;;19.00;51.80;;;;;;20702;6833;121220;-73
2023/09/30 04:13:13;;;;;;;4.93;4.40;;;18.80;51.90;;;;;;20745;6833;121146;-72
2023/09/30 04:15:39;;;;;;;6.30;4.87;;;18.60;52.50;;;;;;20523;6833;305260;-71
2023/09/30 04:18:05;;;;;;;5.20;4.60;;;18.50;52.40;;;;;;20531;6833;307608;-71
2023/09/30 04:20:31;;;;;;;6.50;4.83;;;18.80;52.10;;;;;;20542;6833;307073;-71
2023/09/30 04:22:57;;;;;;;4.87;4.07;;;19.00;51.60;;;;;;20738;6833;122113;-71
2023/09/30 04:25:24;;;;;;;5.70;4.67;;;18.90;51.70;;;;;;20536;6833;282211;-72
2023/09/30 04:27:47;;;;;;;4.60;3.72;;;18.90;52.10;;;;;;20726;6833;123156;-71
2023/09/30 04:30:15;;;;;;;5.85;4.70;;;18.80;52.40;;;;;;20530;6833;278279;-71
2023/09/30 04:32:39;;;;;;;5.05;4.25;;;18.80;52.60;;;;;;20502;6833;312583;-71
2023/09/30 04:35:05;;;;;;;5.35;4.00;;;19.00;52.30;;;;;;20728;6833;117398;-71
2023/09/30 04:37:30;;;;;;;4.80;3.73;;;19.00;52.30;;;;;;20738;6833;119399;-71
2023/09/30 04:39:58;;;;;;;4.97;4.15;;;18.80;52.80;;;;;;20521;6833;338403;-71
2023/09/30 04:42:25;;;;;;;4.15;3.62;;;18.90;53.00;;;;;;20741;6833;118299;-72
2023/09/30 04:44:47;;;;;;;5.00;4.30;;;18.90;52.90;;;;;;20500;6833;307253;-72
2023/09/30 04:47:13;;;;;;;4.82;3.75;;;19.10;52.70;;;;;;20742;6831;117218;-72
2023/09/30 04:49:38;;;;;;;6.03;5.10;;;19.10;52.70;;;;;;20534;6832;282561;-72
2023/09/30 04:52:07;;;;;;;6.30;4.65;;;19.20;52.70;;;;;;20743;6833;119370;-72
2023/09/30 04:54:30;;;;;;;8.60;5.87;;;19.20;52.70;;;;;;20520;6833;277617;-72
2023/09/30 04:56:55;;;;;;;7.00;5.80;;;19.40;52.80;;;;;;20504;6833;308131;-72
2023/09/30 04:59:24;;;;;;;6.37;4.80;;;19.60;52.50;;;;;;20723;6833;117486;-72
2023/09/30 05:01:48;;;;;;;7.80;6.10;;;19.70;53.00;;;;;;20521;6833;307104;-72
2023/09/30 05:04:13;;;;;;;7.17;5.80;;;19.60;52.20;;;;;;20519;6833;328665;-72
2023/09/30 05:06:39;;;;;;;5.47;4.63;;;19.90;52.00;;;;;;20715;6833;122488;-73
2023/09/30 05:09:04;;;;;;;8.43;5.97;;;19.80;52.10;;;;;;20519;6833;312124;-72
2023/09/30 05:11:31;;;;;;;7.05;5.87;;;19.80;51.90;;;;;;20523;6833;309102;-72
2023/09/30 05:13:56;;;;;;;7.60;6.32;;;20.00;52.20;;;;;;20513;6833;309517;-72
2023/09/30 05:16:21;;;;;;;6.37;5.18;;;20.10;51.30;;;;;;20743;6833;120320;-71
2023/09/30 05:18:48;;;;;;;7.40;5.55;;;19.90;51.50;;;;;;20508;6833;279485;-71
2023/09/30 05:21:12;;;;;;;6.37;5.30;;;19.90;51.30;;;;;;20528;6833;337075;-70
2023/09/30 05:23:38;;;;;;;6.27;5.53;;;19.90;51.20;;;;;;20531;6833;281323;-69
2023/09/30 05:26:03;;;;;;;7.43;5.57;;;20.10;51.20;;;;;;20528;6833;337089;-69
2023/09/30 05:28:29;;;;;;;5.57;4.57;;;20.20;50.90;;;;;;20739;6833;121186;-69
2023/09/30 05:30:55;;;;;;;6.30;5.20;;;19.90;51.20;;;;;;20512;6833;310245;-69
2023/09/30 05:33:20;;;;;;;6.60;5.40;;;19.90;51.40;;;;;;20529;6833;307063;-69
2023/09/30 05:35:47;;;;;;;8.10;4.97;;;19.90;51.40;;;;;;20736;6833;119775;-69
2023/09/30 05:38:13;;;;;;;5.80;4.90;;;19.60;52.00;;;;;;20733;6833;119760;-71
2023/09/30 05:40:38;;;;;;;5.90;4.70;;;19.50;51.90;;;;;;20727;6833;120755;-69
2023/09/30 05:43:05;;;;;;;5.62;4.50;;;19.30;52.30;;;;;;20751;6833;117773;-69
2023/09/30 05:45:36;;;;;;;4.78;4.22;;;19.10;52.70;;;;;;20744;6833;120982;-69
2023/09/30 05:48:03;;;;;;;6.93;5.17;;;19.00;53.10;;;;;;20532;6833;307019;-69
2023/09/30 05:50:27;;;;;;;5.70;5.10;;;19.20;53.80;;;;;;20535;6833;278590;-69
2023/09/30 05:52:53;;;;;;;7.00;4.20;;;19.60;52.70;;;;;;20735;6833;131023;-69
2023/09/30 05:55:22;;;;;;;6.40;4.90;;;19.60;52.60;;;;;;20533;6833;277569;-70
2023/09/30 05:57:47;;;;;;;5.17;4.13;;;19.70;52.70;;;;;;20751;6831;120745;-70
2023/09/30 06:00:28;;;;;;;7.30;4.45;;;19.60;52.60;;;;;;20725;6832;117117;-70
2023/09/30 06:02:38;;;;;;;6.80;4.40;;;19.30;52.80;;;;;;20684;6832;122123;-70
2023/09/30 06:05:05;;;;;;;6.57;5.40;;;19.30;53.70;;;;;;20531;6833;308777;-70
2023/09/30 06:07:33;;;;;;;5.77;4.60;;;19.30;53.90;;;;;;20746;6833;122926;-72
2023/09/30 06:09:59;;;;;;;7.65;5.30;;;19.50;53.10;;;;;;20529;6833;296770;-69
2023/09/30 06:12:24;;;;;;;5.07;4.27;;;19.50;53.10;;;;;;20739;6833;121680;-69
2023/09/30 06:14:51;;;;;;;4.43;3.77;;;19.40;53.00;;;;;;20728;6833;146212;-70
2023/09/30 06:17:15;;;;;;;6.57;5.28;;;19.20;53.30;;;;;;20525;6833;307119;-69
2023/09/30 06:19:41;;;;;;;7.40;4.53;;;19.40;53.30;;;;;;20756;6833;117584;-69
2023/09/30 06:22:07;;;;;;;5.50;4.75;;;19.30;53.20;;;;;;20546;6833;278436;-69
2023/09/30 06:24:32;;;;;;;5.32;3.95;;;19.50;53.10;;;;;;20752;6833;117818;-68
2023/09/30 06:26:57;;;;;;;7.20;5.30;;;19.40;53.00;;;;;;20518;6833;309061;-69
2023/09/30 06:29:24;;;;;;;4.53;4.05;;;19.50;52.80;;;;;;20750;6833;117143;-69
2023/09/30 06:31:49;;;;;;;5.47;4.10;;;19.50;52.80;;;;;;20745;6833;118584;-71
2023/09/30 06:34:15;;;;;;;6.30;5.22;;;19.30;53.10;;;;;;20533;6833;307647;-69
2023/09/30 06:36:40;;;;;;;8.07;4.70;;;19.40;53.20;;;;;;20729;6833;117624;-69
2023/09/30 06:39:06;;;;;;;5.53;4.95;;;19.40;53.20;;;;;;20536;6833;277533;-71
2023/09/30 06:41:33;;;;;;;5.72;4.90;;;19.50;53.00;;;;;;20530;6833;308064;-72
2023/09/30 06:43:58;;;;;;;6.78;4.87;;;19.80;52.80;;;;;;20527;6833;307062;-71
2023/09/30 06:46:23;;;;;;;6.20;3.90;;;20.10;51.90;;;;;;20739;6833;120290;-71
2023/09/30 06:48:52;;;;;;;5.17;4.70;;;20.10;52.10;;;;;;20509;6833;307489;-71
2023/09/30 06:51:15;;;;;;;6.30;5.18;;;20.30;51.90;;;;;;20520;6833;341545;-71
2023/09/30 06:53:40;;;;;;;5.75;4.05;;;20.60;51.20;;;;;;20737;6833;121974;-71
2023/09/30 06:56:06;;;;;;;5.20;4.70;;;20.50;51.30;;;;;;20532;6833;278093;-71
2023/09/30 06:58:31;;;;;;;5.75;4.70;;;20.70;51.30;;;;;;20528;6833;307110;-71
2023/09/30 07:00:57;;;;;;;4.60;3.90;;;21.00;50.80;;;;;;20728;6833;117979;-71
2023/09/30 07:03:22;;;;;;;4.80;4.18;;;20.90;50.90;;;;;;20745;6833;118365;-71
2023/09/30 07:05:49;;;;;;;4.95;3.75;;;20.60;51.20;;;;;;20739;6833;117126;-71
2023/09/30 07:08:14;;;;;;;5.07;4.50;;;20.60;51.30;;;;;;20537;6831;280390;-71
2023/09/30 07:10:40;;;;;;;5.60;5.10;;;20.60;51.30;;;;;;20514;6832;281969;-71
2023/09/30 07:13:06;;;;;;;4.97;3.73;;;20.90;50.60;;;;;;20747;6832;120916;-69
2023/09/30 07:15:31;;;;;;;5.50;4.90;;;21.00;50.80;;;;;;20532;6833;277614;-69
2023/09/30 07:17:57;;;;;;;5.53;4.57;;;21.20;50.30;;;;;;20534;6833;322399;-69
2023/09/30 07:20:22;;;;;;;5.37;4.67;;;21.50;49.60;;;;;;20536;6833;283272;-70
2023/09/30 07:22:48;;;;;;;5.32;4.82;;;21.70;49.40;;;;;;20519;6833;310508;-70
2023/09/30 07:25:16;;;;;;;6.53;4.90;;;21.90;49.10;;;;;;20752;6833;119393;-72
2023/09/30 07:27:39;;;;;;;5.03;4.20;;;21.70;49.40;;;;;;20759;6833;120208;-71
2023/09/30 07:30:06;;;;;;;5.30;4.80;;;21.40;50.00;;;;;;20546;6833;278720;-70
2023/09/30 07:32:38;;;;;;;5.43;4.00;;;21.60;50.00;;;;;;20751;6833;120192;-69
2023/09/30 07:35:03;;;;;;;6.22;4.70;;;21.50;50.10;;;;;;20542;6833;278078;-70
2023/09/30 07:37:29;;;;;;;5.73;5.10;;;21.60;49.90;;;;;;20558;6833;306610;-70
2023/09/30 07:39:55;;;;;;;5.87;5.20;;;22.10;49.20;;;;;;20567;6833;293478;-72
2023/09/30 07:42:22;;;;;;;6.40;4.40;;;22.00;49.60;;;;;;20753;6833;117084;-72
2023/09/30 07:44:46;;;;;;;6.35;4.75;;;21.90;49.40;;;;;;20515;6833;337478;-72
2023/09/30 07:47:12;;;;;;;5.47;4.78;;;22.00;49.40;;;;;;20538;6833;279554;-72
2023/09/30 07:49:38;;;;;;;7.63;4.90;;;22.50;48.50;;;;;;20534;6833;278088;-72
2023/09/30 07:52:04;;;;;;;6.70;4.70;;;22.40;48.40;;;;;;20534;6833;282418;-72
2023/09/30 07:54:30;;;;;;;10.03;5.27;;;22.70;48.00;;;;;;20536;6833;277929;-72
2023/09/30 07:56:55;;;;;;;5.43;4.80;;;22.90;47.90;;;;;;20517;6833;281609;-72
2023/09/30 07:59:22;;;;;;;5.50;4.93;;;23.00;47.50;;;;;;20527;6833;307030;-76
2023/09/30 08:01:48;;;;;;;5.40;4.90;;;23.00;47.40;;;;;;20528;6833;309480;-74
2023/09/30 08:04:13;;;;;;;6.07;4.78;;;23.10;47.10;;;;;;20531;6833;311661;-73
2023/09/30 08:06:39;;;;;;;7.57;5.07;;;23.10;46.90;;;;;;20520;6833;281616;-71
2023/09/30 08:09:11;;;;;;;6.47;5.20;;;23.10;46.70;;;;;;20537;6833;337161;-69
2023/09/30 08:11:32;;;;;;;6.07;4.50;;;23.10;46.70;;;;;;20726;6833;118157;-70
2023/09/30 08:13:58;;;;;;;5.27;4.77;;;22.90;47.20;;;;;;20735;6833;117221;-69
2023/09/30 08:16:22;;;;;;;5.60;5.07;;;22.60;47.80;;;;;;20539;6833;293637;-70
2023/09/30 08:18:48;;;;;;;7.03;4.23;;;22.70;47.70;;;;;;20736;6833;122009;-69
2023/09/30 08:21:13;;;;;;;7.22;5.07;;;22.60;47.90;;;;;;20530;6831;307962;-69
2023/09/30 08:23:38;;;;;;;5.53;4.90;;;22.70;47.50;;;;;;20747;6832;122017;-69
2023/09/30 08:26:07;;;;;;;4.93;4.37;;;22.60;47.70;;;;;;20753;6832;120158;-69
2023/09/30 08:28:33;;;;;;;7.83;4.33;;;22.40;48.10;;;;;;20740;6833;118407;-69
2023/09/30 08:31:05;;;;;;;6.50;5.80;;;22.20;48.20;;;;;;20521;6833;330461;-68
2023/09/30 08:33:31;;;;;;;6.03;5.13;;;22.40;47.60;;;;;;20743;6833;118418;-68
2023/09/30 08:35:58;;;;;;;5.30;4.63;;;22.50;47.50;;;;;;20725;6833;120090;-68
2023/09/30 08:38:22;;;;;;;5.87;4.95;;;22.40;47.80;;;;;;20725;6833;117900;-68
2023/09/30 08:40:48;;;;;;;7.73;6.10;;;22.30;47.80;;;;;;20514;6833;311534;-68
2023/09/30 08:43:13;;;;;;;5.97;5.20;;;22.50;47.00;;;;;;20543;6833;278560;-71
2023/09/30 08:45:39;;;;;;;5.77;5.10;;;22.90;46.40;;;;;;20733;6833;119543;-70
2023/09/30 08:48:05;;;;;;;6.00;5.40;;;23.00;46.40;;;;;;20541;6833;277648;-69
2023/09/30 08:50:30;;;;;;;5.32;4.82;;;23.10;46.30;;;;;;20752;6833;119776;-69
2023/09/30 08:52:56;;;;;;;5.53;5.07;;;23.00;46.20;;;;;;20725;6833;119707;-69
2023/09/30 08:55:21;;;;;;;7.47;6.00;;;22.70;46.30;;;;;;20538;6833;278499;-69
2023/09/30 08:57:47;;;;;;;8.80;5.57;;;22.80;46.10;;;;;;20743;6833;123568;-69
2023/09/30 09:00:13;;;;;;;5.73;5.23;;;22.70;46.20;;;;;;20531;6833;280062;-69
2023/09/30 09:02:38;;;;;;;7.47;5.67;;;22.70;45.90;;;;;;20509;6833;341059;-70
2023/09/30 09:05:04;;;;;;;6.07;5.47;;;23.00;46.20;;;;;;20539;6833;278385;-69
2023/09/30 09:07:34;;;;;;;5.70;5.20;;;23.30;46.30;;;;;;20550;6833;338509;-69
2023/09/30 09:10:08;;;;;;;5.57;5.07;;;23.50;45.20;;;;;;20530;6833;279266;-69
2023/09/30 09:12:31;;;;;;;6.00;5.00;;;23.80;45.30;;;;;;20699;6833;118365;-69
2023/09/30 09:14:57;;;;;;;5.40;4.90;;;24.00;44.10;;;;;;20511;6833;299672;-69
2023/09/30 09:17:23;;;;;;;5.60;4.60;;;24.00;44.60;;;;;;20747;6833;118189;-69
2023/09/30 09:20:04;;;;;;;6.45;5.40;;;24.10;44.50;;;;;;20548;6833;309677;-68
2023/09/30 09:22:43;;;;;;;4.97;4.57;;;24.30;42.70;;;;;;20747;6833;117041;-69
2023/09/30 09:25:09;;;;;;;6.57;5.87;;;24.20;43.30;;;;;;20543;6833;308061;-71
2023/09/30 09:27:37;;;;;;;5.73;5.13;;;24.40;43.20;;;;;;20543;6833;278162;-70
2023/09/30 09:30:20;;;;;;;5.73;4.90;;;24.70;41.90;;;;;;20518;6833;312034;-69
2023/09/30 09:32:53;;;;;;;8.17;4.80;;;25.10;42.00;;;;;;20738;6831;125999;-70
2023/09/30 09:35:17;;;;;;;7.53;4.50;;;25.00;42.30;;;;;;20734;6832;118445;-69
2023/09/30 09:37:42;;;;;;;4.60;4.12;;;24.70;42.60;;;;;;20737;6832;116993;-69
2023/09/30 09:40:08;;;;;;;4.67;4.27;;;24.60;43.10;;;;;;20751;6833;121069;-71
2023/09/30 09:42:34;;;;;;;5.97;5.47;;;24.40;43.30;;;;;;20522;6833;301793;-72
2023/09/30 09:44:59;;;;;;;5.30;4.80;;;24.50;42.30;;;;;;20730;6833;118332;-69
2023/09/30 09:47:25;;;;;;;5.70;5.20;;;24.30;42.70;;;;;;20536;6833;281742;-69
2023/09/30 09:49:50;;;;;;;6.40;5.22;;;24.40;42.70;;;;;;20538;6833;303761;-69
2023/09/30 09:52:17;;;;;;;5.53;4.87;;;24.60;41.90;;;;;;20747;6833;116918;-69
2023/09/30 09:54:42;;;;;;;6.05;5.20;;;24.50;42.10;;;;;;20519;6833;336776;-70
2023/09/30 09:57:08;;;;;;;5.63;4.53;;;24.60;42.30;;;;;;20754;6833;116730;-69
2023/09/30 09:59:33;;;;;;;5.75;5.25;;;24.40;42.60;;;;;;20528;6833;277595;-69
2023/09/30 10:01:59;;;;;;;6.18;5.60;;;24.40;41.80;;;;;;20494;6833;337679;-69
2023/09/30 10:04:24;;;;;;;5.63;4.37;;;24.60;41.50;;;;;;20741;6833;118162;-70
2023/09/30 10:06:51;;;;;;;5.00;4.45;;;24.40;41.90;;;;;;20732;6833;118341;-70
2023/09/30 10:09:17;;;;;;;5.83;5.27;;;24.40;42.10;;;;;;20525;6833;283400;-71
2023/09/30 10:11:43;;;;;;;6.00;5.40;;;24.70;42.40;;;;;;20518;6833;327427;-69
2023/09/30 10:14:14;;;;;;;5.33;4.83;;;24.70;41.90;;;;;;20732;6833;118681;-70
2023/09/30 10:16:37;;;;;;;4.45;4.00;;;24.70;41.90;;;;;;20733;6833;118376;-71
2023/09/30 10:19:12;;;;;;;5.50;4.97;;;24.60;42.40;;;;;;20746;6833;117682;-71
2023/09/30 10:21:39;;;;;;;5.67;4.73;;;24.50;42.40;;;;;;20739;6833;119195;-69
2023/09/30 10:24:23;;;;;;;5.22;4.35;;;24.50;42.40;;;;;;20739;6833;118613;-70
2023/09/30 10:27:22;;;;;;;6.43;5.70;;;24.50;42.50;;;;;;20516;6833;312045;-70
2023/09/30 10:29:47;;;;;;;6.80;6.20;;;24.80;41.70;;;;;;20543;6833;311090;-69
2023/09/30 10:32:14;;;;;;;7.53;5.90;;;25.30;39.90;;;;;;20547;6833;292579;-70
2023/09/30 10:34:38;;;;;;;6.97;5.93;;;25.60;39.20;;;;;;20730;6833;118613;-70
2023/09/30 10:37:20;;;;;;;7.12;6.43;;;25.60;39.60;;;;;;20537;6833;281784;-70
2023/09/30 10:39:53;;;;;;;7.50;6.80;;;25.70;38.60;;;;;;20523;6833;308454;-69
2023/09/30 10:42:18;;;;;;;7.57;6.77;;;25.90;37.90;;;;;;20560;6833;296916;-70
2023/09/30 10:44:45;;;;;;;7.90;7.10;;;26.10;37.40;;;;;;20116;6832;308157;-70
2023/09/30 10:47:22;;;;;;;8.03;7.23;;;26.30;37.60;;;;;;20538;6832;305694;-70
2023/09/30 10:49:48;;;;;;;7.33;6.60;;;26.40;36.50;;;;;;20766;6833;118704;-68
2023/09/30 10:52:13;;;;;;;8.53;7.17;;;26.30;37.50;;;;;;20559;6833;277718;-68
2023/09/30 10:54:39;;;;;;;9.00;6.60;;;26.30;37.60;;;;;;20704;6833;118868;-70
2023/09/30 10:57:04;;;;;;;7.37;6.30;;;26.20;37.70;;;;;;20753;6833;117361;-71
2023/09/30 10:59:30;;;;;;;6.93;6.07;;;26.00;38.10;;;;;;20747;6833;116267;-69
2023/09/30 11:01:56;;;;;;;7.70;6.90;;;25.70;38.60;;;;;;20531;6833;278434;-69
2023/09/30 11:04:21;;;;;;;8.52;7.30;;;25.90;38.00;;;;;;20531;6833;307648;-69
2023/09/30 11:06:47;;;;;;;8.27;6.37;;;26.20;37.30;;;;;;20729;6833;127690;-72
2023/09/30 11:09:16;;;;;;;8.10;7.30;;;26.20;37.60;;;;;;20528;6833;308069;-71
2023/09/30 11:11:52;;;;;;;7.17;6.47;;;26.30;36.80;;;;;;20741;6833;118754;-71
2023/09/30 11:14:24;;;;;;;9.80;7.30;;;26.30;37.20;;;;;;20533;6833;320118;-72
2023/09/30 11:16:50;;;;;;;8.53;6.40;;;26.30;36.40;;;;;;20721;6833;120829;-71
2023/09/30 11:19:15;;;;;;;8.27;7.28;;;26.30;36.80;;;;;;20525;6833;307557;-72
2023/09/30 11:21:41;;;;;;;10.43;7.30;;;26.40;36.30;;;;;;20748;6833;118308;-69
2023/09/30 11:24:07;;;;;;;11.35;8.32;;;26.30;36.30;;;;;;20530;6833;277797;-68
2023/09/30 11:26:32;;;;;;;10.13;8.43;;;26.30;35.40;;;;;;20523;6833;307600;-68
2023/09/30 11:29:08;;;;;;;9.27;8.00;;;26.60;34.20;;;;;;20503;6833;307590;-68
2023/09/30 11:31:33;;;;;;;10.85;9.30;;;26.70;32.30;;;;;;20530;6833;312837;-68
2023/09/30 11:34:03;;;;;;;9.55;8.20;;;26.80;32.80;;;;;;20521;6833;298887;-68
2023/09/30 11:36:24;;;;;;;9.97;7.33;;;26.90;33.60;;;;;;20733;6833;117660;-68
2023/09/30 18:08:28;;;;;;;7.83;6.17;;;19.60;44.30;;;;;;21026;6532;92052;-71
2023/09/30 18:10:56;;;;;;;7.73;6.30;;;19.50;44.50;;;;;;20813;6808;117802;-70
2023/09/30 18:13:19;;;;;;;8.70;5.80;;;19.50;44.70;;;;;;20822;6808;119917;-71
2023/09/30 18:15:45;;;;;;;9.07;7.07;;;19.50;44.80;;;;;;20437;6823;283070;-70
2023/09/30 18:18:10;;;;;;;9.95;6.82;;;19.90;45.70;;;;;;20393;6873;309374;-70
2023/09/30 18:20:36;;;;;;;11.73;5.60;;;20.30;45.10;;;;;;20590;6876;120441;-71
2023/09/30 18:23:02;;;;;;;8.17;6.33;;;20.40;44.70;;;;;;20609;6876;118674;-70
2023/09/30 18:25:29;;;;;;;7.78;6.05;;;20.20;44.60;;;;;;20591;6876;118593;-69
2023/09/30 18:27:54;;;;;;;8.05;5.43;;;19.90;44.90;;;;;;20549;6892;117531;-69
2023/09/30 18:30:20;;;;;;;7.20;6.07;;;19.90;44.90;;;;;;20604;6878;120527;-70
2023/09/30 18:32:45;;;;;;;8.70;6.37;;;20.10;45.40;;;;;;20375;6878;309729;-71
2023/09/30 18:35:12;;;;;;;7.37;6.50;;;20.10;46.00;;;;;;20363;6878;309733;-72
2023/09/30 18:37:37;;;;;;;8.10;7.30;;;20.50;45.20;;;;;;20373;6872;310188;-71
2023/09/30 18:40:02;;;;;;;7.23;6.07;;;20.70;44.50;;;;;;20630;6872;120445;-72
2023/09/30 18:42:29;;;;;;;8.10;6.60;;;20.60;44.30;;;;;;20338;6872;312010;-73
2023/09/30 18:44:54;;;;;;;8.33;7.30;;;20.70;44.50;;;;;;20366;6872;310302;-74
2023/09/30 18:47:19;;;;;;;7.87;7.12;;;20.90;44.10;;;;;;20409;6872;308564;-75
2023/09/30 18:49:45;;;;;;;7.62;6.82;;;21.00;44.00;;;;;;20402;6872;314228;-73
2023/09/30 18:52:10;;;;;;;7.90;6.17;;;21.10;44.00;;;;;;20614;6872;118476;-75
2023/09/30 18:54:37;;;;;;;6.40;5.77;;;20.50;44.30;;;;;;20592;6872;120459;-73
2023/09/30 18:57:02;;;;;;;6.50;5.80;;;20.50;44.30;;;;;;20602;6872;117800;-74
2023/09/30 18:59:29;;;;;;;7.70;6.80;;;20.20;45.40;;;;;;20393;6872;314716;-73